sensor_id;sensor_type;location;lat;lon;timestamp;P1;durP1;ratioP1;P2;durP2;ratioP2
39674;SDS011;27790;50.840;4.386;2023-05-07T00:00:37;8.93;;;3.60;;
39674;SDS011;27790;50.840;4.386;2023-05-07T00:03:03;7.30;;;3.38;;
39674;SDS011;27790;50.840;4.386;2023-05-07T00:05:29;13.35;;;4.05;;
39674;SDS011;27790;50.840;4.386;2023-05-07T00:07:54;10.10;;;3.47;;
39674;SDS011;27790;50.840;4.386;2023-05-07T00:10:20;7.35;;;3.90;;
39674;SDS011;27790;50.840;4.386;2023-05-07T00:12:46;9.25;;;3.78;;
39674;SDS011;27790;50.840;4.386;2023-05-07T00:15:11;8.88;;;4.10;;
39674;SDS011;27790;50.840;4.386;2023-05-07T00:17:37;9.93;;;3.83;;
39674;SDS011;27790;50.840;4.386;2023-05-07T00:20:03;6.55;;;3.80;;
39674;SDS011;27790;50.840;4.386;2023-05-07T00:22:30;6.45;;;3.00;;
39674;SDS011;27790;50.840;4.386;2023-05-07T00:24:57;8.45;;;3.50;;
39674;SDS011;27790;50.840;4.386;2023-05-07T00:27:24;8.20;;;3.30;;
39674;SDS011;27790;50.840;4.386;2023-05-07T00:29:50;7.57;;;3.63;;
39674;SDS011;27790;50.840;4.386;2023-05-07T00:32:15;9.48;;;3.50;;
39674;SDS011;27790;50.840;4.386;2023-05-07T00:34:41;9.23;;;3.95;;
39674;SDS011;27790;50.840;4.386;2023-05-07T00:37:07;7.95;;;3.63;;
39674;SDS011;27790;50.840;4.386;2023-05-07T00:39:33;9.27;;;3.80;;
39674;SDS011;27790;50.840;4.386;2023-05-07T00:41:59;9.27;;;3.35;;
39674;SDS011;27790;50.840;4.386;2023-05-07T00:44:25;6.68;;;3.00;;
39674;SDS011;27790;50.840;4.386;2023-05-07T00:46:51;8.70;;;3.95;;
39674;SDS011;27790;50.840;4.386;2023-05-07T00:49:17;5.13;;;3.33;;
39674;SDS011;27790;50.840;4.386;2023-05-07T00:51:43;12.90;;;4.90;;
39674;SDS011;27790;50.840;4.386;2023-05-07T00:54:10;4.18;;;3.47;;
39674;SDS011;27790;50.840;4.386;2023-05-07T00:56:36;7.60;;;3.42;;
39674;SDS011;27790;50.840;4.386;2023-05-07T00:59:02;10.82;;;3.60;;
39674;SDS011;27790;50.840;4.386;2023-05-07T01:01:28;9.02;;;3.75;;
39674;SDS011;27790;50.840;4.386;2023-05-07T01:03:54;10.52;;;3.88;;
39674;SDS011;27790;50.840;4.386;2023-05-07T01:06:20;6.13;;;3.83;;
39674;SDS011;27790;50.840;4.386;2023-05-07T01:08:50;7.75;;;3.42;;
39674;SDS011;27790;50.840;4.386;2023-05-07T01:11:17;7.18;;;3.78;;
39674;SDS011;27790;50.840;4.386;2023-05-07T01:13:45;10.43;;;3.60;;
39674;SDS011;27790;50.840;4.386;2023-05-07T01:16:12;11.48;;;3.85;;
39674;SDS011;27790;50.840;4.386;2023-05-07T01:18:38;11.95;;;3.42;;
39674;SDS011;27790;50.840;4.386;2023-05-07T01:21:03;9.45;;;3.80;;
39674;SDS011;27790;50.840;4.386;2023-05-07T01:23:30;7.97;;;3.20;;
39674;SDS011;27790;50.840;4.386;2023-05-07T01:25:55;7.00;;;3.38;;
39674;SDS011;27790;50.840;4.386;2023-05-07T01:28:21;10.40;;;4.10;;
39674;SDS011;27790;50.840;4.386;2023-05-07T01:30:49;7.55;;;3.45;;
39674;SDS011;27790;50.840;4.386;2023-05-07T01:33:18;9.90;;;3.65;;
39674;SDS011;27790;50.840;4.386;2023-05-07T01:35:47;8.07;;;3.35;;
39674;SDS011;27790;50.840;4.386;2023-05-07T01:38:16;8.10;;;4.38;;
39674;SDS011;27790;50.840;4.386;2023-05-07T01:40:43;6.57;;;3.10;;
39674;SDS011;27790;50.840;4.386;2023-05-07T01:43:09;10.90;;;3.83;;
39674;SDS011;27790;50.840;4.386;2023-05-07T01:45:35;13.38;;;4.07;;
39674;SDS011;27790;50.840;4.386;2023-05-07T01:48:02;9.63;;;3.92;;
39674;SDS011;27790;50.840;4.386;2023-05-07T01:50:28;16.13;;;4.72;;
39674;SDS011;27790;50.840;4.386;2023-05-07T01:52:55;7.20;;;4.15;;
39674;SDS011;27790;50.840;4.386;2023-05-07T01:55:21;14.82;;;4.38;;
39674;SDS011;27790;50.840;4.386;2023-05-07T01:57:46;7.07;;;3.53;;
39674;SDS011;27790;50.840;4.386;2023-05-07T02:00:12;9.10;;;3.60;;
39674;SDS011;27790;50.840;4.386;2023-05-07T02:02:38;11.27;;;4.00;;
39674;SDS011;27790;50.840;4.386;2023-05-07T02:05:04;10.38;;;4.00;;
39674;SDS011;27790;50.840;4.386;2023-05-07T02:07:30;12.95;;;3.63;;
39674;SDS011;27790;50.840;4.386;2023-05-07T02:09:56;11.73;;;3.90;;
39674;SDS011;27790;50.840;4.386;2023-05-07T02:12:22;11.90;;;3.30;;
39674;SDS011;27790;50.840;4.386;2023-05-07T02:14:47;8.20;;;4.07;;
39674;SDS011;27790;50.840;4.386;2023-05-07T02:17:13;6.13;;;3.42;;
39674;SDS011;27790;50.840;4.386;2023-05-07T02:19:39;9.15;;;3.92;;
39674;SDS011;27790;50.840;4.386;2023-05-07T02:22:04;12.75;;;3.70;;
39674;SDS011;27790;50.840;4.386;2023-05-07T02:24:30;11.32;;;3.88;;
39674;SDS011;27790;50.840;4.386;2023-05-07T02:26:56;5.70;;;3.28;;
39674;SDS011;27790;50.840;4.386;2023-05-07T02:29:21;6.07;;;3.25;;
39674;SDS011;27790;50.840;4.386;2023-05-07T02:31:47;7.13;;;3.78;;
39674;SDS011;27790;50.840;4.386;2023-05-07T02:34:15;6.13;;;3.17;;
39674;SDS011;27790;50.840;4.386;2023-05-07T02:36:42;9.50;;;3.20;;
39674;SDS011;27790;50.840;4.386;2023-05-07T02:39:07;11.32;;;3.47;;
39674;SDS011;27790;50.840;4.386;2023-05-07T02:41:33;6.28;;;2.92;;
39674;SDS011;27790;50.840;4.386;2023-05-07T02:43:59;8.40;;;3.47;;
39674;SDS011;27790;50.840;4.386;2023-05-07T02:46:25;15.13;;;3.85;;
39674;SDS011;27790;50.840;4.386;2023-05-07T02:48:50;7.47;;;3.13;;
39674;SDS011;27790;50.840;4.386;2023-05-07T02:51:19;10.73;;;3.95;;
39674;SDS011;27790;50.840;4.386;2023-05-07T02:53:46;9.40;;;3.15;;
39674;SDS011;27790;50.840;4.386;2023-05-07T02:56:12;11.43;;;4.40;;
39674;SDS011;27790;50.840;4.386;2023-05-07T02:58:37;10.73;;;3.20;;
39674;SDS011;27790;50.840;4.386;2023-05-07T03:01:07;9.57;;;3.85;;
39674;SDS011;27790;50.840;4.386;2023-05-07T03:03:33;6.15;;;3.25;;
39674;SDS011;27790;50.840;4.386;2023-05-07T03:05:59;7.00;;;3.00;;
39674;SDS011;27790;50.840;4.386;2023-05-07T03:08:25;9.55;;;3.92;;
39674;SDS011;27790;50.840;4.386;2023-05-07T03:10:51;10.00;;;4.05;;
39674;SDS011;27790;50.840;4.386;2023-05-07T03:13:17;9.88;;;3.90;;
39674;SDS011;27790;50.840;4.386;2023-05-07T03:15:42;9.65;;;3.75;;
39674;SDS011;27790;50.840;4.386;2023-05-07T03:18:08;8.30;;;4.10;;
39674;SDS011;27790;50.840;4.386;2023-05-07T03:20:34;6.13;;;2.85;;
39674;SDS011;27790;50.840;4.386;2023-05-07T03:23:01;8.38;;;3.60;;
39674;SDS011;27790;50.840;4.386;2023-05-07T03:25:27;8.32;;;3.85;;
39674;SDS011;27790;50.840;4.386;2023-05-07T03:27:52;11.68;;;3.47;;
39674;SDS011;27790;50.840;4.386;2023-05-07T03:30:18;9.65;;;3.28;;
39674;SDS011;27790;50.840;4.386;2023-05-07T03:32:44;5.35;;;3.38;;
39674;SDS011;27790;50.840;4.386;2023-05-07T03:35:09;6.40;;;3.30;;
39674;SDS011;27790;50.840;4.386;2023-05-07T03:37:35;10.18;;;4.10;;
39674;SDS011;27790;50.840;4.386;2023-05-07T03:40:00;7.47;;;4.00;;
39674;SDS011;27790;50.840;4.386;2023-05-07T03:42:27;8.98;;;3.08;;
39674;SDS011;27790;50.840;4.386;2023-05-07T03:44:53;8.50;;;3.60;;
39674;SDS011;27790;50.840;4.386;2023-05-07T03:47:19;8.25;;;3.78;;
39674;SDS011;27790;50.840;4.386;2023-05-07T03:49:45;10.13;;;3.38;;
39674;SDS011;27790;50.840;4.386;2023-05-07T03:52:10;7.80;;;3.67;;
39674;SDS011;27790;50.840;4.386;2023-05-07T03:54:36;11.05;;;3.70;;
39674;SDS011;27790;50.840;4.386;2023-05-07T03:57:02;11.52;;;4.13;;
39674;SDS011;27790;50.840;4.386;2023-05-07T03:59:27;8.73;;;3.55;;
39674;SDS011;27790;50.840;4.386;2023-05-07T04:01:53;13.98;;;3.75;;
39674;SDS011;27790;50.840;4.386;2023-05-07T04:04:18;10.98;;;3.20;;
39674;SDS011;27790;50.840;4.386;2023-05-07T04:06:45;8.60;;;3.65;;
39674;SDS011;27790;50.840;4.386;2023-05-07T04:09:10;7.30;;;3.58;;
39674;SDS011;27790;50.840;4.386;2023-05-07T04:11:36;6.78;;;3.47;;
39674;SDS011;27790;50.840;4.386;2023-05-07T04:14:01;7.53;;;2.72;;
39674;SDS011;27790;50.840;4.386;2023-05-07T04:16:27;9.50;;;3.47;;
39674;SDS011;27790;50.840;4.386;2023-05-07T04:18:53;8.48;;;3.40;;
39674;SDS011;27790;50.840;4.386;2023-05-07T04:21:19;10.07;;;3.85;;
39674;SDS011;27790;50.840;4.386;2023-05-07T04:23:45;10.85;;;3.88;;
39674;SDS011;27790;50.840;4.386;2023-05-07T04:26:12;10.65;;;3.50;;
39674;SDS011;27790;50.840;4.386;2023-05-07T04:28:38;7.40;;;3.95;;
39674;SDS011;27790;50.840;4.386;2023-05-07T04:31:04;9.10;;;3.40;;
39674;SDS011;27790;50.840;4.386;2023-05-07T04:33:30;5.68;;;3.17;;
39674;SDS011;27790;50.840;4.386;2023-05-07T04:35:56;12.30;;;4.03;;
39674;SDS011;27790;50.840;4.386;2023-05-07T04:38:22;5.68;;;3.30;;
39674;SDS011;27790;50.840;4.386;2023-05-07T04:40:48;6.63;;;3.03;;
39674;SDS011;27790;50.840;4.386;2023-05-07T04:43:14;9.32;;;3.75;;
39674;SDS011;27790;50.840;4.386;2023-05-07T04:45:41;7.43;;;4.00;;
39674;SDS011;27790;50.840;4.386;2023-05-07T04:48:06;12.63;;;3.13;;
39674;SDS011;27790;50.840;4.386;2023-05-07T04:50:33;11.18;;;4.18;;
39674;SDS011;27790;50.840;4.386;2023-05-07T04:52:59;10.18;;;3.22;;
39674;SDS011;27790;50.840;4.386;2023-05-07T04:55:25;8.45;;;4.15;;
39674;SDS011;27790;50.840;4.386;2023-05-07T04:57:51;7.53;;;3.42;;
39674;SDS011;27790;50.840;4.386;2023-05-07T05:00:17;8.43;;;3.20;;
39674;SDS011;27790;50.840;4.386;2023-05-07T05:02:44;15.75;;;3.60;;
39674;SDS011;27790;50.840;4.386;2023-05-07T05:05:10;7.30;;;3.65;;
39674;SDS011;27790;50.840;4.386;2023-05-07T05:07:36;8.45;;;3.67;;
39674;SDS011;27790;50.840;4.386;2023-05-07T05:10:02;9.05;;;3.05;;
39674;SDS011;27790;50.840;4.386;2023-05-07T05:12:30;12.13;;;3.20;;
39674;SDS011;27790;50.840;4.386;2023-05-07T05:14:55;9.65;;;3.17;;
39674;SDS011;27790;50.840;4.386;2023-05-07T05:17:21;8.13;;;2.67;;
39674;SDS011;27790;50.840;4.386;2023-05-07T05:19:47;6.78;;;3.10;;
39674;SDS011;27790;50.840;4.386;2023-05-07T05:22:12;12.15;;;2.97;;
39674;SDS011;27790;50.840;4.386;2023-05-07T05:24:38;7.05;;;2.63;;
39674;SDS011;27790;50.840;4.386;2023-05-07T05:27:03;8.85;;;3.30;;
39674;SDS011;27790;50.840;4.386;2023-05-07T05:29:30;7.38;;;2.65;;
39674;SDS011;27790;50.840;4.386;2023-05-07T05:31:56;5.10;;;3.10;;
39674;SDS011;27790;50.840;4.386;2023-05-07T05:34:22;9.93;;;2.92;;
39674;SDS011;27790;50.840;4.386;2023-05-07T05:36:48;5.15;;;2.47;;
39674;SDS011;27790;50.840;4.386;2023-05-07T05:39:13;7.97;;;3.17;;
39674;SDS011;27790;50.840;4.386;2023-05-07T05:41:39;8.48;;;3.00;;
39674;SDS011;27790;50.840;4.386;2023-05-07T05:44:05;8.07;;;3.20;;
39674;SDS011;27790;50.840;4.386;2023-05-07T05:46:30;9.52;;;3.20;;
39674;SDS011;27790;50.840;4.386;2023-05-07T05:48:56;9.30;;;3.95;;
39674;SDS011;27790;50.840;4.386;2023-05-07T05:51:21;11.73;;;3.30;;
39674;SDS011;27790;50.840;4.386;2023-05-07T05:53:48;7.57;;;3.08;;
39674;SDS011;27790;50.840;4.386;2023-05-07T05:56:14;6.10;;;3.08;;
39674;SDS011;27790;50.840;4.386;2023-05-07T05:58:40;10.85;;;3.55;;
39674;SDS011;27790;50.840;4.386;2023-05-07T06:01:06;5.70;;;2.88;;
39674;SDS011;27790;50.840;4.386;2023-05-07T06:03:31;10.85;;;3.70;;
39674;SDS011;27790;50.840;4.386;2023-05-07T06:05:57;10.80;;;3.45;;
39674;SDS011;27790;50.840;4.386;2023-05-07T06:08:23;8.32;;;3.10;;
39674;SDS011;27790;50.840;4.386;2023-05-07T06:10:49;9.05;;;3.58;;
39674;SDS011;27790;50.840;4.386;2023-05-07T06:13:14;12.00;;;4.63;;
39674;SDS011;27790;50.840;4.386;2023-05-07T06:15:40;13.50;;;4.03;;
39674;SDS011;27790;50.840;4.386;2023-05-07T06:18:06;10.55;;;4.32;;
39674;SDS011;27790;50.840;4.386;2023-05-07T06:20:31;7.90;;;3.92;;
39674;SDS011;27790;50.840;4.386;2023-05-07T06:22:57;15.05;;;4.50;;
39674;SDS011;27790;50.840;4.386;2023-05-07T06:25:22;8.00;;;4.32;;
39674;SDS011;27790;50.840;4.386;2023-05-07T06:27:48;10.07;;;4.18;;
39674;SDS011;27790;50.840;4.386;2023-05-07T06:30:14;5.40;;;3.65;;
39674;SDS011;27790;50.840;4.386;2023-05-07T06:32:40;7.57;;;4.40;;
39674;SDS011;27790;50.840;4.386;2023-05-07T06:35:06;8.85;;;4.10;;
39674;SDS011;27790;50.840;4.386;2023-05-07T06:37:32;8.15;;;4.00;;
39674;SDS011;27790;50.840;4.386;2023-05-07T06:39:57;11.32;;;4.45;;
39674;SDS011;27790;50.840;4.386;2023-05-07T06:42:23;8.15;;;3.97;;
39674;SDS011;27790;50.840;4.386;2023-05-07T06:44:48;11.82;;;4.95;;
39674;SDS011;27790;50.840;4.386;2023-05-07T06:47:14;8.90;;;4.60;;
39674;SDS011;27790;50.840;4.386;2023-05-07T06:49:40;10.55;;;4.28;;
39674;SDS011;27790;50.840;4.386;2023-05-07T06:52:05;11.40;;;5.10;;
39674;SDS011;27790;50.840;4.386;2023-05-07T06:54:31;9.93;;;4.25;;
39674;SDS011;27790;50.840;4.386;2023-05-07T06:56:56;7.72;;;3.92;;
39674;SDS011;27790;50.840;4.386;2023-05-07T06:59:23;9.98;;;3.92;;
39674;SDS011;27790;50.840;4.386;2023-05-07T07:01:49;8.00;;;3.92;;
39674;SDS011;27790;50.840;4.386;2023-05-07T07:04:14;7.75;;;4.10;;
39674;SDS011;27790;50.840;4.386;2023-05-07T07:06:40;8.88;;;3.75;;
39674;SDS011;27790;50.840;4.386;2023-05-07T07:09:05;7.57;;;3.60;;
39674;SDS011;27790;50.840;4.386;2023-05-07T07:11:31;11.98;;;3.50;;
39674;SDS011;27790;50.840;4.386;2023-05-07T07:13:57;9.23;;;3.83;;
39674;SDS011;27790;50.840;4.386;2023-05-07T07:16:23;13.10;;;4.07;;
39674;SDS011;27790;50.840;4.386;2023-05-07T07:18:49;7.13;;;3.55;;
39674;SDS011;27790;50.840;4.386;2023-05-07T07:21:15;5.85;;;4.05;;
39674;SDS011;27790;50.840;4.386;2023-05-07T07:23:41;7.88;;;3.97;;
39674;SDS011;27790;50.840;4.386;2023-05-07T07:26:06;7.68;;;4.20;;
39674;SDS011;27790;50.840;4.386;2023-05-07T07:28:32;11.73;;;3.95;;
39674;SDS011;27790;50.840;4.386;2023-05-07T07:30:58;6.85;;;4.07;;
39674;SDS011;27790;50.840;4.386;2023-05-07T07:33:23;6.40;;;3.65;;
39674;SDS011;27790;50.840;4.386;2023-05-07T07:35:49;7.22;;;3.33;;
39674;SDS011;27790;50.840;4.386;2023-05-07T07:38:15;8.07;;;3.95;;
39674;SDS011;27790;50.840;4.386;2023-05-07T07:40:40;7.90;;;4.30;;
39674;SDS011;27790;50.840;4.386;2023-05-07T07:43:06;8.23;;;3.90;;
39674;SDS011;27790;50.840;4.386;2023-05-07T07:45:31;9.27;;;4.88;;
39674;SDS011;27790;50.840;4.386;2023-05-07T07:47:57;7.82;;;4.03;;
39674;SDS011;27790;50.840;4.386;2023-05-07T07:50:23;11.20;;;3.95;;
39674;SDS011;27790;50.840;4.386;2023-05-07T07:52:48;8.65;;;3.88;;
39674;SDS011;27790;50.840;4.386;2023-05-07T07:55:14;12.45;;;3.88;;
39674;SDS011;27790;50.840;4.386;2023-05-07T07:57:43;11.98;;;4.55;;
39674;SDS011;27790;50.840;4.386;2023-05-07T08:00:08;10.15;;;4.13;;
39674;SDS011;27790;50.840;4.386;2023-05-07T08:02:34;6.53;;;3.05;;
39674;SDS011;27790;50.840;4.386;2023-05-07T08:05:00;9.98;;;4.30;;
39674;SDS011;27790;50.840;4.386;2023-05-07T08:07:28;9.15;;;3.92;;
39674;SDS011;27790;50.840;4.386;2023-05-07T08:09:54;9.73;;;5.10;;
39674;SDS011;27790;50.840;4.386;2023-05-07T08:12:20;9.35;;;4.10;;
39674;SDS011;27790;50.840;4.386;2023-05-07T08:14:46;9.35;;;4.05;;
39674;SDS011;27790;50.840;4.386;2023-05-07T08:17:11;7.55;;;3.65;;
39674;SDS011;27790;50.840;4.386;2023-05-07T08:19:38;7.38;;;3.83;;
39674;SDS011;27790;50.840;4.386;2023-05-07T08:22:03;6.53;;;4.22;;
39674;SDS011;27790;50.840;4.386;2023-05-07T08:24:30;7.63;;;3.75;;
39674;SDS011;27790;50.840;4.386;2023-05-07T08:26:56;9.07;;;3.90;;
39674;SDS011;27790;50.840;4.386;2023-05-07T08:29:21;6.65;;;4.28;;
39674;SDS011;27790;50.840;4.386;2023-05-07T08:31:47;8.98;;;3.90;;
39674;SDS011;27790;50.840;4.386;2023-05-07T08:34:13;9.85;;;4.43;;
39674;SDS011;27790;50.840;4.386;2023-05-07T08:36:38;10.23;;;4.25;;
39674;SDS011;27790;50.840;4.386;2023-05-07T08:39:06;7.95;;;4.32;;
39674;SDS011;27790;50.840;4.386;2023-05-07T08:41:32;6.13;;;4.90;;
39674;SDS011;27790;50.840;4.386;2023-05-07T08:43:58;7.10;;;4.55;;
39674;SDS011;27790;50.840;4.386;2023-05-07T08:46:27;6.97;;;4.60;;
39674;SDS011;27790;50.840;4.386;2023-05-07T08:48:59;9.00;;;5.40;;
39674;SDS011;27790;50.840;4.386;2023-05-07T08:51:24;11.43;;;6.03;;
39674;SDS011;27790;50.840;4.386;2023-05-07T08:53:50;12.25;;;4.90;;
39674;SDS011;27790;50.840;4.386;2023-05-07T08:56:16;7.95;;;4.30;;
39674;SDS011;27790;50.840;4.386;2023-05-07T08:58:43;6.60;;;4.00;;
39674;SDS011;27790;50.840;4.386;2023-05-07T09:01:10;5.70;;;3.80;;
39674;SDS011;27790;50.840;4.386;2023-05-07T09:03:39;7.85;;;3.90;;
39674;SDS011;27790;50.840;4.386;2023-05-07T09:06:05;6.28;;;4.07;;
39674;SDS011;27790;50.840;4.386;2023-05-07T09:08:32;7.80;;;4.45;;
39674;SDS011;27790;50.840;4.386;2023-05-07T09:10:59;5.20;;;3.90;;
39674;SDS011;27790;50.840;4.386;2023-05-07T09:13:25;7.97;;;4.10;;
39674;SDS011;27790;50.840;4.386;2023-05-07T09:15:51;8.52;;;4.05;;
39674;SDS011;27790;50.840;4.386;2023-05-07T09:18:17;7.68;;;4.25;;
39674;SDS011;27790;50.840;4.386;2023-05-07T09:20:43;8.40;;;4.25;;
39674;SDS011;27790;50.840;4.386;2023-05-07T09:23:08;10.73;;;4.68;;
39674;SDS011;27790;50.840;4.386;2023-05-07T09:25:35;10.48;;;3.88;;
39674;SDS011;27790;50.840;4.386;2023-05-07T09:28:02;9.13;;;3.90;;
39674;SDS011;27790;50.840;4.386;2023-05-07T09:30:31;9.95;;;3.60;;
39674;SDS011;27790;50.840;4.386;2023-05-07T09:32:58;6.40;;;3.22;;
39674;SDS011;27790;50.840;4.386;2023-05-07T09:35:24;6.93;;;3.80;;
39674;SDS011;27790;50.840;4.386;2023-05-07T09:37:55;12.98;;;3.75;;
39674;SDS011;27790;50.840;4.386;2023-05-07T09:40:22;6.05;;;3.25;;
39674;SDS011;27790;50.840;4.386;2023-05-07T09:42:50;9.85;;;4.80;;
39674;SDS011;27790;50.840;4.386;2023-05-07T09:45:16;5.70;;;4.07;;
39674;SDS011;27790;50.840;4.386;2023-05-07T09:47:50;7.28;;;3.47;;
39674;SDS011;27790;50.840;4.386;2023-05-07T09:50:19;9.05;;;4.55;;
39674;SDS011;27790;50.840;4.386;2023-05-07T09:53:07;9.02;;;3.83;;
39674;SDS011;27790;50.840;4.386;2023-05-07T09:55:35;4.00;;;2.83;;
39674;SDS011;27790;50.840;4.386;2023-05-07T09:58:02;5.95;;;3.30;;
39674;SDS011;27790;50.840;4.386;2023-05-07T10:00:29;7.00;;;3.00;;
39674;SDS011;27790;50.840;4.386;2023-05-07T10:02:56;7.65;;;3.00;;
39674;SDS011;27790;50.840;4.386;2023-05-07T10:05:23;6.10;;;2.42;;
39674;SDS011;27790;50.840;4.386;2023-05-07T10:07:50;6.55;;;2.85;;
39674;SDS011;27790;50.840;4.386;2023-05-07T10:10:16;9.00;;;2.60;;
39674;SDS011;27790;50.840;4.386;2023-05-07T10:12:42;5.78;;;2.50;;
39674;SDS011;27790;50.840;4.386;2023-05-07T10:15:11;4.93;;;3.17;;
39674;SDS011;27790;50.840;4.386;2023-05-07T10:17:37;8.35;;;3.22;;
39674;SDS011;27790;50.840;4.386;2023-05-07T10:20:04;2.88;;;2.03;;
39674;SDS011;27790;50.840;4.386;2023-05-07T10:22:32;2.83;;;2.10;;
39674;SDS011;27790;50.840;4.386;2023-05-07T10:25:03;3.90;;;2.35;;
39674;SDS011;27790;50.840;4.386;2023-05-07T10:27:43;5.90;;;2.97;;
39674;SDS011;27790;50.840;4.386;2023-05-07T10:32:59;4.32;;;2.53;;
39674;SDS011;27790;50.840;4.386;2023-05-07T10:35:31;6.00;;;2.50;;
39674;SDS011;27790;50.840;4.386;2023-05-07T10:38:03;3.03;;;2.22;;
39674;SDS011;27790;50.840;4.386;2023-05-07T10:40:30;3.75;;;2.83;;
39674;SDS011;27790;50.840;4.386;2023-05-07T10:42:56;6.55;;;2.60;;
39674;SDS011;27790;50.840;4.386;2023-05-07T10:45:27;3.20;;;2.53;;
39674;SDS011;27790;50.840;4.386;2023-05-07T10:50:33;5.00;;;3.17;;
39674;SDS011;27790;50.840;4.386;2023-05-07T10:55:52;6.80;;;3.08;;
39674;SDS011;27790;50.840;4.386;2023-05-07T10:58:38;4.05;;;2.45;;
39674;SDS011;27790;50.840;4.386;2023-05-07T11:01:04;6.20;;;3.00;;
39674;SDS011;27790;50.840;4.386;2023-05-07T11:03:30;3.47;;;2.50;;
39674;SDS011;27790;50.840;4.386;2023-05-07T11:11:19;4.60;;;2.78;;
39674;SDS011;27790;50.840;4.386;2023-05-07T11:14:04;2.90;;;2.00;;
39674;SDS011;27790;50.840;4.386;2023-05-07T11:16:30;4.40;;;2.50;;
39674;SDS011;27790;50.840;4.386;2023-05-07T11:19:01;2.90;;;2.20;;
39674;SDS011;27790;50.840;4.386;2023-05-07T11:24:05;5.53;;;2.25;;
39674;SDS011;27790;50.840;4.386;2023-05-07T11:29:17;3.85;;;2.20;;
39674;SDS011;27790;50.840;4.386;2023-05-07T11:31:44;3.00;;;1.80;;
39674;SDS011;27790;50.840;4.386;2023-05-07T11:34:14;2.53;;;1.83;;
39674;SDS011;27790;50.840;4.386;2023-05-07T11:36:45;2.67;;;1.73;;
39674;SDS011;27790;50.840;4.386;2023-05-07T11:41:53;3.53;;;1.70;;
39674;SDS011;27790;50.840;4.386;2023-05-07T11:44:18;4.15;;;2.10;;
39674;SDS011;27790;50.840;4.386;2023-05-07T11:46:44;4.28;;;1.88;;
39674;SDS011;27790;50.840;4.386;2023-05-07T11:49:10;4.97;;;1.90;;
39674;SDS011;27790;50.840;4.386;2023-05-07T11:51:36;4.72;;;2.05;;
39674;SDS011;27790;50.840;4.386;2023-05-07T11:54:03;3.05;;;2.00;;
39674;SDS011;27790;50.840;4.386;2023-05-07T11:56:33;4.45;;;2.13;;
39674;SDS011;27790;50.840;4.386;2023-05-07T11:59:00;2.63;;;2.10;;
39674;SDS011;27790;50.840;4.386;2023-05-07T12:01:25;4.15;;;2.30;;
39674;SDS011;27790;50.840;4.386;2023-05-07T12:03:51;4.57;;;2.30;;
39674;SDS011;27790;50.840;4.386;2023-05-07T12:06:17;2.95;;;2.35;;
39674;SDS011;27790;50.840;4.386;2023-05-07T12:08:43;3.95;;;2.20;;
39674;SDS011;27790;50.840;4.386;2023-05-07T12:11:12;4.03;;;1.80;;
39674;SDS011;27790;50.840;4.386;2023-05-07T12:13:41;4.22;;;1.73;;
39674;SDS011;27790;50.840;4.386;2023-05-07T12:16:07;1.98;;;1.52;;
39674;SDS011;27790;50.840;4.386;2023-05-07T12:18:34;3.03;;;1.80;;
39674;SDS011;27790;50.840;4.386;2023-05-07T12:21:00;2.20;;;1.80;;
39674;SDS011;27790;50.840;4.386;2023-05-07T12:23:26;2.70;;;2.05;;
39674;SDS011;27790;50.840;4.386;2023-05-07T12:25:52;3.00;;;1.92;;
39674;SDS011;27790;50.840;4.386;2023-05-07T12:28:19;3.75;;;2.08;;
39674;SDS011;27790;50.840;4.386;2023-05-07T12:30:45;1.92;;;1.77;;
39674;SDS011;27790;50.840;4.386;2023-05-07T12:33:12;3.92;;;1.80;;
39674;SDS011;27790;50.840;4.386;2023-05-07T12:35:42;2.28;;;1.98;;
39674;SDS011;27790;50.840;4.386;2023-05-07T12:38:11;3.03;;;1.77;;
39674;SDS011;27790;50.840;4.386;2023-05-07T12:40:39;2.97;;;2.50;;
39674;SDS011;27790;50.840;4.386;2023-05-07T12:43:05;2.42;;;2.22;;
39674;SDS011;27790;50.840;4.386;2023-05-07T12:45:30;4.53;;;2.60;;
39674;SDS011;27790;50.840;4.386;2023-05-07T12:47:56;3.53;;;2.55;;
39674;SDS011;27790;50.840;4.386;2023-05-07T12:50:30;3.70;;;3.17;;
39674;SDS011;27790;50.840;4.386;2023-05-07T12:52:58;3.47;;;2.88;;
39674;SDS011;27790;50.840;4.386;2023-05-07T12:55:24;4.13;;;3.72;;
39674;SDS011;27790;50.840;4.386;2023-05-07T12:57:49;7.40;;;4.32;;
39674;SDS011;27790;50.840;4.386;2023-05-07T13:00:16;5.15;;;4.32;;
39674;SDS011;27790;50.840;4.386;2023-05-07T13:02:43;4.75;;;4.35;;
39674;SDS011;27790;50.840;4.386;2023-05-07T13:05:12;4.95;;;4.45;;
39674;SDS011;27790;50.840;4.386;2023-05-07T13:07:38;5.68;;;5.05;;
39674;SDS011;27790;50.840;4.386;2023-05-07T13:10:05;5.03;;;4.63;;
39674;SDS011;27790;50.840;4.386;2023-05-07T13:12:32;5.53;;;5.03;;
39674;SDS011;27790;50.840;4.386;2023-05-07T13:14:57;5.45;;;4.90;;
39674;SDS011;27790;50.840;4.386;2023-05-07T13:17:24;5.50;;;4.85;;
39674;SDS011;27790;50.840;4.386;2023-05-07T13:19:49;7.50;;;5.65;;
39674;SDS011;27790;50.840;4.386;2023-05-07T13:22:15;6.80;;;5.50;;
39674;SDS011;27790;50.840;4.386;2023-05-07T13:24:40;6.93;;;5.68;;
39674;SDS011;27790;50.840;4.386;2023-05-07T13:27:08;10.02;;;5.65;;
39674;SDS011;27790;50.840;4.386;2023-05-07T13:29:33;7.35;;;5.55;;
39674;SDS011;27790;50.840;4.386;2023-05-07T13:31:59;7.10;;;6.40;;
39674;SDS011;27790;50.840;4.386;2023-05-07T13:34:24;7.95;;;6.30;;
39674;SDS011;27790;50.840;4.386;2023-05-07T13:36:50;7.28;;;5.68;;
39674;SDS011;27790;50.840;4.386;2023-05-07T13:39:16;7.72;;;6.97;;
39674;SDS011;27790;50.840;4.386;2023-05-07T13:41:41;7.55;;;6.05;;
39674;SDS011;27790;50.840;4.386;2023-05-07T13:44:07;8.80;;;7.60;;
39674;SDS011;27790;50.840;4.386;2023-05-07T13:46:33;10.23;;;5.88;;
39674;SDS011;27790;50.840;4.386;2023-05-07T13:48:58;6.93;;;6.32;;
39674;SDS011;27790;50.840;4.386;2023-05-07T13:51:24;6.78;;;6.07;;
39674;SDS011;27790;50.840;4.386;2023-05-07T13:53:50;7.93;;;7.13;;
39674;SDS011;27790;50.840;4.386;2023-05-07T13:56:17;7.72;;;7.00;;
39674;SDS011;27790;50.840;4.386;2023-05-07T13:58:43;8.63;;;7.43;;
39674;SDS011;27790;50.840;4.386;2023-05-07T14:01:08;9.30;;;6.25;;
39674;SDS011;27790;50.840;4.386;2023-05-07T14:03:34;8.20;;;7.35;;
39674;SDS011;27790;50.840;4.386;2023-05-07T14:06:02;8.82;;;7.93;;
39674;SDS011;27790;50.840;4.386;2023-05-07T14:08:28;8.80;;;7.90;;
39674;SDS011;27790;50.840;4.386;2023-05-07T14:10:54;8.10;;;7.28;;
39674;SDS011;27790;50.840;4.386;2023-05-07T14:13:19;10.23;;;8.38;;
39674;SDS011;27790;50.840;4.386;2023-05-07T14:15:45;9.63;;;8.45;;
39674;SDS011;27790;50.840;4.386;2023-05-07T14:18:15;8.60;;;7.85;;
39674;SDS011;27790;50.840;4.386;2023-05-07T14:20:41;8.77;;;8.00;;
39674;SDS011;27790;50.840;4.386;2023-05-07T14:23:08;9.10;;;8.20;;
39674;SDS011;27790;50.840;4.386;2023-05-07T14:25:34;10.10;;;8.68;;
39674;SDS011;27790;50.840;4.386;2023-05-07T14:28:00;10.02;;;9.02;;
39674;SDS011;27790;50.840;4.386;2023-05-07T14:30:26;9.80;;;8.80;;
39674;SDS011;27790;50.840;4.386;2023-05-07T14:32:51;9.45;;;8.43;;
39674;SDS011;27790;50.840;4.386;2023-05-07T14:35:17;7.75;;;7.05;;
39674;SDS011;27790;50.840;4.386;2023-05-07T14:37:43;7.32;;;6.50;;
39674;SDS011;27790;50.840;4.386;2023-05-07T14:40:08;8.82;;;7.75;;
39674;SDS011;27790;50.840;4.386;2023-05-07T14:42:34;8.25;;;7.35;;
39674;SDS011;27790;50.840;4.386;2023-05-07T14:45:00;8.50;;;7.57;;
39674;SDS011;27790;50.840;4.386;2023-05-07T14:47:27;7.13;;;6.47;;
39674;SDS011;27790;50.840;4.386;2023-05-07T14:49:53;8.27;;;7.45;;
39674;SDS011;27790;50.840;4.386;2023-05-07T14:52:19;8.23;;;7.40;;
39674;SDS011;27790;50.840;4.386;2023-05-07T14:54:45;10.50;;;7.78;;
39674;SDS011;27790;50.840;4.386;2023-05-07T14:57:11;9.10;;;7.40;;
39674;SDS011;27790;50.840;4.386;2023-05-07T14:59:39;10.70;;;8.10;;
39674;SDS011;27790;50.840;4.386;2023-05-07T15:02:06;8.80;;;7.85;;